createdAt,value
2019-04-05T00:00:42.362Z,99.90
2019-04-05T00:03:13.882Z,99.90
2019-04-05T00:05:47.133Z,99.90
2019-04-05T00:08:19.549Z,99.90
2019-04-05T00:10:52.388Z,99.90
2019-04-05T00:13:22.639Z,99.90
2019-04-05T00:15:52.477Z,99.90
2019-04-05T00:18:22.075Z,99.90
2019-04-05T00:20:52.002Z,99.90
2019-04-05T00:23:21.973Z,99.90
2019-04-05T00:25:51.769Z,99.90
2019-04-05T00:28:21.700Z,99.90
2019-04-05T00:30:51.545Z,99.90
2019-04-05T00:33:24.805Z,99.90
2019-04-05T00:35:54.549Z,99.90
2019-04-05T00:38:24.616Z,99.90
2019-04-05T00:40:54.433Z,99.90
2019-04-05T00:43:24.600Z,99.90
2019-04-05T00:45:54.141Z,99.90
2019-04-05T00:48:23.956Z,99.90
2019-04-05T00:50:53.960Z,99.90
2019-04-05T00:53:24.131Z,99.90
2019-04-05T00:55:58.431Z,99.90
2019-04-05T00:58:28.517Z,99.90
2019-04-05T01:00:58.310Z,99.90
2019-04-05T01:03:27.984Z,99.90
2019-04-05T01:06:00.812Z,99.90
2019-04-05T01:08:36.980Z,99.90
2019-04-05T01:11:06.778Z,99.90
2019-04-05T01:16:13.499Z,99.90
2019-04-05T01:18:44.258Z,99.90
2019-04-05T01:21:21.830Z,99.90
2019-04-05T01:23:52.016Z,99.90
2019-04-05T01:26:27.454Z,99.90
2019-04-05T01:28:57.034Z,99.90
2019-04-05T01:31:26.771Z,99.90
2019-04-05T01:33:56.549Z,99.90
2019-04-05T01:36:26.452Z,99.90
2019-04-05T01:38:56.187Z,99.90
2019-04-05T01:41:25.808Z,99.90
2019-04-05T01:43:55.598Z,99.90
2019-04-05T01:46:25.527Z,99.90
2019-04-05T01:48:55.444Z,99.90
2019-04-05T01:51:28.108Z,99.90
2019-04-05T01:53:57.904Z,99.90
2019-04-05T01:56:27.832Z,99.90
2019-04-05T01:58:57.677Z,99.90
2019-04-05T02:01:27.426Z,99.90
2019-04-05T02:03:57.410Z,99.90
2019-04-05T02:06:27.282Z,99.90
2019-04-05T02:09:03.053Z,99.90
2019-04-05T02:11:32.126Z,99.90
2019-04-05T02:14:01.773Z,99.90
2019-04-05T02:16:31.999Z,99.90
2019-04-05T02:19:01.558Z,99.90
2019-04-05T02:21:34.624Z,99.90
2019-04-05T02:24:04.438Z,99.90
2019-04-05T02:26:34.462Z,99.90
2019-04-05T02:29:04.333Z,99.90
2019-04-05T02:31:34.317Z,99.90
2019-04-05T02:34:04.575Z,99.90
2019-04-05T02:36:34.968Z,99.90
2019-04-05T02:39:05.462Z,99.90
2019-04-05T02:41:35.096Z,99.90
2019-04-05T02:44:04.653Z,99.90
2019-04-05T02:46:34.955Z,99.90
2019-04-05T02:49:04.993Z,99.90
2019-04-05T02:51:36.710Z,99.90
2019-04-05T02:54:06.670Z,99.90
2019-04-05T02:56:36.675Z,99.90
2019-04-05T02:59:07.988Z,99.90
2019-04-05T03:01:43.877Z,99.90
2019-04-05T03:04:13.905Z,99.90
2019-04-05T03:06:45.380Z,99.90
2019-04-05T03:09:15.027Z,99.90
2019-04-05T03:11:44.829Z,99.90
2019-04-05T03:14:14.858Z,99.90
2019-04-05T03:16:48.331Z,99.90
2019-04-05T03:19:24.340Z,99.90
2019-04-05T03:21:58.357Z,99.90
2019-04-05T03:24:31.203Z,99.90
2019-04-05T03:27:06.526Z,99.90
2019-04-05T03:29:49.287Z,99.90
2019-04-05T03:32:19.485Z,99.90
2019-04-05T03:34:49.645Z,99.90
2019-04-05T03:37:21.655Z,99.90
2019-04-05T03:40:01.287Z,99.90
2019-04-05T03:42:44.052Z,99.90
2019-04-05T03:45:16.936Z,99.90
2019-04-05T03:47:46.853Z,99.90
2019-04-05T03:50:16.561Z,99.90
2019-04-05T03:52:46.331Z,99.90
2019-04-05T03:55:29.757Z,99.90
2019-04-05T03:58:02.583Z,99.90
2019-04-05T04:00:32.521Z,99.90
2019-04-05T04:03:05.457Z,99.90
2019-04-05T04:05:35.578Z,99.90
2019-04-05T04:08:05.643Z,99.90
2019-04-05T04:10:36.038Z,99.90
2019-04-05T04:13:05.405Z,99.90
2019-04-05T04:15:35.125Z,99.90
2019-04-05T04:18:06.414Z,99.90
2019-04-05T04:20:49.523Z,99.90
2019-04-05T04:23:19.040Z,99.90
2019-04-05T04:25:48.864Z,99.90
2019-04-05T04:28:18.706Z,99.90
2019-04-05T04:30:54.620Z,99.90
2019-04-05T04:33:24.577Z,99.90
2019-04-05T04:35:54.796Z,99.90
2019-04-05T04:38:29.586Z,99.90
2019-04-05T04:41:10.594Z,99.90
2019-04-05T04:44:22.702Z,99.90
2019-04-05T04:47:04.020Z,99.90
2019-04-05T04:49:56.081Z,99.90
2019-04-05T04:52:46.783Z,99.90
2019-04-05T04:55:33.388Z,99.90
2019-04-05T04:58:18.597Z,99.90
2019-04-05T05:01:10.819Z,99.90
2019-04-05T05:03:56.558Z,99.90
2019-04-05T05:06:55.377Z,99.90
2019-04-05T05:09:29.081Z,99.90
2019-04-05T05:13:49.104Z,99.90
2019-04-05T05:14:55.227Z,99.90
2019-04-05T05:17:58.823Z,99.90
2019-04-05T05:27:41.743Z,99.90
2019-04-05T05:52:02.933Z,99.90
2019-04-05T05:54:34.818Z,99.90
2019-04-05T05:57:04.942Z,99.90
2019-04-05T06:00:04.895Z,99.90
2019-04-05T06:02:48.575Z,99.90
2019-04-05T06:05:21.978Z,99.90
2019-04-05T06:08:02.245Z,99.90
2019-04-05T06:10:36.256Z,99.90
2019-04-05T06:13:07.887Z,99.90
2019-04-05T06:18:43.552Z,99.90
2019-04-05T06:21:48.578Z,99.90
2019-04-05T06:24:48.339Z,99.90
2019-04-05T06:27:35.727Z,99.90
2019-04-05T06:30:22.876Z,99.90
2019-04-05T06:32:52.862Z,99.90
2019-04-05T06:35:29.200Z,99.90
2019-04-05T06:38:04.733Z,99.90
2019-04-05T06:40:40.944Z,99.90
2019-04-05T06:43:08.935Z,99.90
2019-04-05T06:45:41.591Z,99.90
2019-04-05T06:48:19.559Z,99.90
2019-04-05T06:50:47.474Z,99.90
2019-04-05T06:53:25.593Z,99.90
2019-04-05T06:56:05.308Z,99.90
2019-04-05T06:58:46.297Z,99.90
2019-04-05T07:01:25.034Z,99.90
2019-04-05T07:04:01.447Z,99.90
2019-04-05T07:07:22.690Z,99.90
2019-04-05T07:10:01.922Z,99.90
2019-04-05T07:12:47.428Z,99.90
2019-04-05T07:15:32.809Z,99.90
2019-04-05T07:18:08.871Z,99.90
2019-04-05T07:24:26.009Z,99.90
2019-04-05T07:26:57.414Z,99.90
2019-04-05T07:29:26.390Z,99.90
2019-04-05T07:31:55.694Z,99.90
2019-04-05T07:34:25.271Z,99.90
2019-04-05T07:36:54.554Z,99.90
2019-04-05T07:39:43.182Z,99.90
2019-04-05T07:42:12.514Z,99.90
2019-04-05T07:44:41.914Z,99.90
2019-04-05T07:47:11.184Z,99.90
2019-04-05T07:49:40.495Z,99.90
2019-04-05T07:52:12.776Z,99.90
2019-04-05T07:54:40.891Z,99.90
2019-04-05T07:57:10.141Z,99.90
2019-04-05T07:59:39.562Z,99.90
2019-04-05T08:02:09.081Z,99.90
2019-04-05T08:04:38.571Z,99.90
2019-04-05T08:07:07.911Z,99.90
2019-04-05T08:09:37.651Z,99.90
2019-04-05T08:12:07.081Z,99.90
2019-04-05T08:14:37.119Z,99.90
2019-04-05T08:17:06.777Z,99.90
2019-04-05T08:19:37.112Z,99.90
2019-04-05T08:22:10.329Z,99.90
2019-04-05T08:24:45.220Z,99.90
2019-04-05T08:27:16.844Z,99.90
2019-04-05T08:29:49.073Z,99.90
2019-04-05T08:32:28.931Z,99.90
2019-04-05T08:35:21.170Z,99.90
2019-04-05T08:37:51.290Z,99.90
2019-04-05T08:40:23.668Z,99.90
2019-04-05T08:46:08.240Z,99.90
2019-04-05T08:49:11.099Z,99.90
2019-04-05T08:51:40.326Z,99.90
2019-04-05T08:54:31.824Z,99.90
2019-04-05T08:57:03.205Z,99.90
2019-04-05T08:59:45.692Z,99.90
2019-04-05T09:02:26.887Z,99.90
2019-04-05T09:05:20.416Z,99.90
2019-04-05T09:11:13.122Z,99.90
2019-04-05T09:13:50.512Z,99.90
2019-04-05T09:16:23.601Z,99.90
2019-04-05T09:25:30.248Z,99.90
2019-04-05T09:28:00.818Z,99.90
2019-04-05T09:30:37.426Z,99.90
2019-04-05T09:33:36.965Z,99.90
2019-04-05T09:36:20.027Z,99.90
2019-04-05T09:39:48.399Z,99.90
2019-04-05T09:42:42.518Z,99.90
2019-04-05T09:45:36.599Z,99.90
2019-04-05T09:48:27.710Z,99.90
2019-04-05T09:51:00.800Z,99.90
2019-04-05T09:53:34.094Z,99.90
2019-04-05T09:56:09.231Z,99.90
2019-04-05T09:59:26.454Z,99.90
2019-04-05T10:05:04.140Z,99.90
2019-04-05T10:07:56.686Z,99.90
2019-04-05T10:10:35.746Z,99.90
2019-04-05T10:13:10.474Z,99.90
2019-04-05T10:16:36.096Z,99.90
2019-04-05T10:22:32.039Z,99.90
2019-04-05T10:25:50.854Z,99.90
2019-04-05T10:28:33.681Z,99.90
2019-04-05T10:31:16.740Z,99.90
2019-04-05T10:33:54.439Z,99.90
2019-04-05T10:36:51.693Z,99.90
2019-04-05T10:39:24.787Z,99.90
2019-04-05T10:42:06.679Z,99.90
2019-04-05T10:44:55.713Z,99.90
2019-04-05T10:47:51.549Z,99.90
2019-04-05T10:50:35.712Z,99.90
2019-04-05T10:53:17.096Z,99.90
2019-04-05T10:56:59.754Z,99.90
2019-04-05T10:59:41.713Z,99.90
2019-04-05T11:02:25.148Z,99.90
2019-04-05T11:05:04.276Z,99.90
2019-04-05T11:10:46.499Z,99.90
2019-04-05T11:13:20.099Z,99.90
2019-04-05T11:15:56.158Z,99.90
2019-04-05T11:18:26.586Z,99.90
2019-04-05T11:21:00.801Z,99.90
2019-04-05T11:23:32.289Z,99.90
2019-04-05T11:30:01.552Z,99.90
2019-04-05T11:33:44.689Z,99.90
2019-04-05T11:36:24.532Z,99.90
2019-04-05T11:39:48.250Z,99.90
2019-04-05T11:42:27.353Z,99.90
2019-04-05T11:45:14.965Z,99.90
2019-04-05T11:48:04.949Z,99.90
2019-04-05T11:50:43.393Z,99.90
2019-04-05T11:53:13.513Z,99.90
2019-04-05T11:56:39.824Z,99.90
2019-04-05T11:59:17.615Z,99.90
2019-04-05T12:02:14.598Z,99.90
2019-04-05T12:04:55.367Z,99.90
2019-04-05T12:07:41.870Z,99.90
2019-04-05T12:10:13.629Z,99.90
2019-04-05T12:13:16.584Z,99.90
2019-04-05T12:16:03.683Z,99.90
2019-04-05T12:18:41.332Z,99.90
2019-04-05T12:21:26.913Z,99.90
2019-04-05T12:27:43.719Z,99.90
2019-04-05T12:30:21.223Z,99.90
2019-04-05T12:33:12.988Z,99.90
2019-04-05T12:35:39.813Z,99.90
2019-04-05T12:38:37.065Z,99.90
2019-04-05T12:41:18.243Z,99.90
2019-04-05T12:44:08.434Z,99.90
2019-04-05T12:47:17.539Z,99.90
2019-04-05T12:49:54.115Z,99.90
2019-04-05T12:52:36.342Z,99.90
2019-04-05T12:55:41.931Z,99.90
2019-04-05T12:58:28.844Z,99.90
2019-04-05T13:01:04.250Z,99.90
2019-04-05T13:07:09.310Z,99.90
2019-04-05T13:09:53.817Z,99.90
2019-04-05T13:12:26.990Z,99.90
2019-04-05T13:15:11.296Z,99.90
2019-04-05T13:17:49.491Z,99.90
2019-04-05T13:20:23.180Z,99.90
2019-04-05T13:22:53.640Z,99.90
2019-04-05T13:25:25.277Z,99.90
2019-04-05T13:27:58.699Z,99.90
2019-04-05T13:30:48.252Z,99.90
2019-04-05T13:33:34.234Z,99.90
2019-04-05T13:36:10.223Z,99.90
2019-04-05T13:38:54.331Z,99.90
2019-04-05T13:41:31.686Z,99.90
2019-04-05T13:44:16.627Z,99.90
2019-04-05T13:46:49.996Z,99.90
2019-04-05T13:49:34.888Z,99.90
2019-04-05T13:52:06.704Z,99.90
2019-04-05T13:54:40.342Z,99.90
2019-04-05T13:57:12.555Z,99.90
2019-04-05T13:59:53.397Z,99.90
2019-04-05T14:02:43.891Z,99.90
2019-04-05T14:08:12.462Z,99.90
2019-04-05T14:10:53.270Z,99.90
2019-04-05T14:13:29.317Z,99.90
2019-04-05T14:16:06.192Z,99.90
2019-04-05T14:18:55.809Z,99.90
2019-04-05T14:21:47.115Z,99.90
2019-04-05T14:24:13.699Z,99.90
2019-04-05T14:26:48.967Z,99.90
2019-04-05T14:29:33.345Z,99.90
2019-04-05T14:32:20.909Z,99.90
2019-04-05T14:34:54.881Z,99.90
2019-04-05T14:40:23.972Z,99.90
2019-04-05T14:42:58.440Z,98.70
2019-04-05T14:45:38.343Z,98.40
2019-04-05T14:48:31.776Z,98.60
2019-04-05T14:51:33.775Z,97.80
2019-04-05T14:54:20.654Z,97.50
2019-04-05T14:57:05.441Z,98.20
2019-04-05T14:59:33.032Z,98.50
2019-04-05T15:02:03.509Z,99.40
2019-04-05T15:04:33.764Z,98.20
2019-04-05T15:09:46.143Z,99.80
2019-04-05T15:12:16.338Z,99.70
2019-04-05T15:14:47.115Z,99.90
2019-04-05T15:17:22.584Z,99.90
2019-04-05T15:19:58.551Z,99.90
2019-04-05T15:22:28.676Z,99.90
2019-04-05T15:25:08.095Z,99.90
2019-04-05T15:27:41.880Z,99.90
2019-04-05T15:30:26.474Z,99.90
2019-04-05T15:32:58.508Z,99.90
2019-04-05T15:35:58.047Z,99.90
2019-04-05T15:38:32.385Z,99.90
2019-04-05T15:41:41.882Z,99.90
2019-04-05T15:44:25.433Z,99.90
2019-04-05T15:47:04.706Z,99.90
2019-04-05T15:49:44.825Z,99.90
2019-04-05T15:55:48.652Z,99.90
2019-04-05T15:58:52.547Z,99.90
2019-04-05T16:01:39.273Z,99.90
2019-04-05T16:04:15.304Z,99.90
2019-04-05T16:06:50.135Z,99.90
2019-04-05T16:09:30.046Z,99.90
2019-04-05T16:12:12.108Z,99.90
2019-04-05T16:14:52.672Z,99.90
2019-04-05T16:17:28.872Z,99.90
2019-04-05T16:20:07.894Z,99.90
2019-04-05T16:22:48.324Z,99.90
2019-04-05T16:25:33.602Z,99.90
2019-04-05T16:28:26.555Z,99.90
2019-04-05T16:31:03.944Z,99.90
2019-04-05T16:36:40.842Z,99.90
2019-04-05T16:39:15.160Z,99.90
2019-04-05T16:41:53.982Z,99.90
2019-04-05T16:44:33.319Z,99.90
2019-04-05T16:52:59.692Z,99.90
2019-04-05T16:55:31.653Z,99.90
2019-04-05T16:58:15.904Z,99.90
2019-04-05T17:00:46.330Z,99.90
2019-04-05T17:03:25.462Z,99.90
2019-04-05T17:06:04.670Z,99.90
2019-04-05T17:08:41.993Z,99.90
2019-04-05T17:11:12.806Z,99.90
2019-04-05T17:14:02.502Z,99.90
2019-04-05T17:16:37.520Z,99.90
2019-04-05T17:23:24.719Z,99.90
2019-04-05T17:29:27.280Z,99.90
2019-04-05T17:32:02.723Z,99.90
2019-04-05T17:34:43.958Z,99.90
2019-04-05T17:37:19.959Z,99.90
2019-04-05T17:40:01.653Z,99.90
2019-04-05T17:42:37.513Z,99.90
2019-04-05T17:45:16.840Z,99.90
2019-04-05T17:47:49.723Z,99.90
2019-04-05T17:57:45.594Z,99.90
2019-04-05T18:00:24.564Z,99.90
2019-04-05T18:02:55.765Z,99.90
2019-04-05T18:05:26.165Z,99.90
2019-04-05T18:08:02.803Z,99.90
2019-04-05T18:11:05.013Z,99.90
2019-04-05T18:13:44.002Z,99.90
2019-04-05T18:16:40.810Z,99.90
2019-04-05T18:19:14.111Z,99.90
2019-04-05T18:21:53.955Z,99.90
2019-04-05T18:25:14.004Z,99.90
2019-04-05T18:27:08.205Z,99.90
2019-04-05T18:29:40.973Z,99.90
2019-04-05T18:32:11.398Z,99.90
2019-04-05T18:34:41.313Z,99.90
2019-04-05T18:37:11.374Z,99.90
2019-04-05T18:42:45.542Z,99.90
2019-04-05T18:45:20.770Z,99.90
2019-04-05T18:47:55.964Z,99.90
2019-04-05T18:50:33.053Z,99.90
2019-04-05T18:56:03.872Z,99.90
2019-04-05T18:58:37.513Z,99.90
2019-04-05T19:01:45.748Z,99.90
2019-04-05T19:04:31.039Z,99.90
2019-04-05T19:07:26.309Z,99.90
2019-04-05T19:09:59.193Z,99.90
2019-04-05T19:12:32.218Z,99.90
2019-04-05T19:15:28.046Z,99.90
2019-04-05T19:17:58.225Z,99.90
2019-04-05T19:20:40.735Z,99.90
2019-04-05T19:23:14.103Z,99.90
2019-04-05T19:25:48.040Z,99.90
2019-04-05T19:28:25.839Z,99.90
2019-04-05T19:50:43.295Z,99.90
2019-04-05T19:53:25.212Z,99.90
2019-04-05T19:56:07.807Z,99.90
2019-04-05T19:58:38.130Z,99.90
2019-04-05T20:01:34.973Z,99.90
2019-04-05T20:04:06.318Z,99.90
2019-04-05T20:06:43.915Z,99.90
2019-04-05T20:09:15.878Z,99.90
2019-04-05T20:12:09.447Z,99.90
2019-04-05T20:14:53.699Z,99.90
2019-04-05T20:17:32.933Z,99.90
2019-04-05T20:20:23.444Z,99.90
2019-04-05T20:23:02.662Z,99.90
2019-04-05T20:25:34.162Z,99.90
2019-04-05T20:28:07.304Z,99.90
2019-04-05T20:30:57.289Z,99.90
2019-04-05T20:33:31.134Z,99.90
2019-04-05T20:39:24.173Z,99.90
2019-04-05T20:41:57.467Z,99.90
2019-04-05T20:44:51.753Z,99.90
2019-04-05T20:50:38.664Z,99.90
2019-04-05T20:53:26.931Z,99.90
2019-04-05T20:56:10.036Z,99.90
2019-04-05T20:58:47.957Z,99.90
2019-04-05T21:01:41.285Z,99.90
2019-04-05T21:04:31.169Z,99.90
2019-04-05T21:07:07.985Z,99.90
2019-04-05T21:09:54.173Z,99.90
2019-04-05T21:13:05.462Z,99.90
2019-04-05T21:16:00.362Z,99.90
2019-04-05T21:18:38.780Z,99.90
2019-04-05T21:21:14.019Z,99.90
2019-04-05T21:24:13.421Z,99.90
2019-04-05T21:26:48.205Z,99.90
2019-04-05T21:29:19.089Z,99.90
2019-04-05T21:35:07.045Z,99.90
2019-04-05T21:40:31.450Z,99.90
2019-04-05T21:43:04.206Z,99.90
2019-04-05T21:49:04.218Z,99.90
2019-04-05T21:52:16.992Z,99.90
2019-04-05T21:54:54.689Z,99.90
2019-04-05T21:57:41.192Z,99.90
2019-04-05T22:00:20.511Z,99.90
2019-04-05T22:03:22.597Z,99.90
2019-04-05T22:05:58.936Z,99.90
2019-04-05T22:09:10.760Z,99.90
2019-04-05T22:12:03.000Z,99.90
2019-04-05T22:14:57.693Z,99.90
2019-04-05T22:18:40.109Z,99.90
2019-04-05T22:20:32.647Z,99.90
2019-04-05T22:23:24.379Z,99.90
2019-04-05T22:26:04.038Z,99.90
2019-04-05T22:28:55.331Z,99.90
2019-04-05T22:31:57.298Z,99.90
2019-04-05T22:34:52.813Z,99.90
2019-04-05T22:37:49.531Z,99.90
2019-04-05T22:40:46.211Z,99.90
2019-04-05T22:44:17.558Z,99.90
2019-04-05T22:46:48.389Z,99.90
2019-04-05T22:49:21.531Z,99.90
2019-04-05T22:51:54.464Z,99.90
2019-04-05T22:54:24.687Z,99.90
2019-04-05T23:00:07.627Z,99.90
2019-04-05T23:03:17.988Z,99.90
2019-04-05T23:06:11.047Z,99.90
2019-04-05T23:08:47.455Z,99.90
2019-04-05T23:11:17.985Z,99.90
2019-04-05T23:14:09.974Z,99.90
2019-04-05T23:16:40.503Z,99.90
2019-04-05T23:19:32.474Z,99.90
2019-04-05T23:22:28.673Z,99.90
2019-04-05T23:25:08.822Z,99.90
2019-04-05T23:27:42.156Z,99.90
2019-04-05T23:30:15.614Z,99.90
2019-04-05T23:33:08.458Z,99.90
2019-04-05T23:35:44.730Z,99.90
2019-04-05T23:38:15.095Z,99.90
2019-04-05T23:40:47.453Z,99.90
2019-04-05T23:43:36.046Z,99.90
2019-04-05T23:46:21.969Z,99.90
2019-04-05T23:53:01.026Z,99.90
2019-04-05T23:55:53.331Z,99.90
2019-04-05T23:58:31.678Z,99.90
